sensor_id;sensor_type;location;lat;lon;timestamp;temperature;humidity
6792;DHT22;3433;48.730;9.108;2022-12-13T00:00:26;-2.40;99.90
6792;DHT22;3433;48.730;9.108;2022-12-13T00:03:13;-2.40;99.90
6792;DHT22;3433;48.730;9.108;2022-12-13T00:06:03;-2.50;99.90
6792;DHT22;3433;48.730;9.108;2022-12-13T00:08:51;-2.60;99.90
6792;DHT22;3433;48.730;9.108;2022-12-13T00:11:38;-2.50;99.90
6792;DHT22;3433;48.730;9.108;2022-12-13T00:14:27;-2.50;99.90
6792;DHT22;3433;48.730;9.108;2022-12-13T00:17:14;-2.40;99.90
6792;DHT22;3433;48.730;9.108;2022-12-13T00:20:02;-2.40;99.90
6792;DHT22;3433;48.730;9.108;2022-12-13T00:22:50;-2.50;99.90
6792;DHT22;3433;48.730;9.108;2022-12-13T00:25:38;-2.50;99.90
6792;DHT22;3433;48.730;9.108;2022-12-13T00:28:25;-2.40;99.90
6792;DHT22;3433;48.730;9.108;2022-12-13T00:31:14;-2.50;99.90
6792;DHT22;3433;48.730;9.108;2022-12-13T00:34:02;-2.50;99.90
6792;DHT22;3433;48.730;9.108;2022-12-13T00:36:49;-2.50;99.90
6792;DHT22;3433;48.730;9.108;2022-12-13T00:39:37;-2.50;99.90
6792;DHT22;3433;48.730;9.108;2022-12-13T00:42:24;-2.60;99.90
6792;DHT22;3433;48.730;9.108;2022-12-13T00:45:11;-2.60;99.90
6792;DHT22;3433;48.730;9.108;2022-12-13T00:48:00;-2.60;99.90
6792;DHT22;3433;48.730;9.108;2022-12-13T00:50:48;-2.60;99.90
6792;DHT22;3433;48.730;9.108;2022-12-13T00:53:35;-2.70;99.90
6792;DHT22;3433;48.730;9.108;2022-12-13T00:56:24;-2.70;99.90
6792;DHT22;3433;48.730;9.108;2022-12-13T00:59:13;-2.80;99.90
6792;DHT22;3433;48.730;9.108;2022-12-13T01:02:00;-2.80;99.90
6792;DHT22;3433;48.730;9.108;2022-12-13T01:04:49;-2.80;99.90
6792;DHT22;3433;48.730;9.108;2022-12-13T01:07:37;-2.80;99.90
6792;DHT22;3433;48.730;9.108;2022-12-13T01:10:29;-2.80;99.90
6792;DHT22;3433;48.730;9.108;2022-12-13T01:13:16;-2.90;99.80
6792;DHT22;3433;48.730;9.108;2022-12-13T01:16:05;-2.90;99.70
6792;DHT22;3433;48.730;9.108;2022-12-13T01:18:52;-3.00;99.80
6792;DHT22;3433;48.730;9.108;2022-12-13T01:21:42;-3.00;99.70
6792;DHT22;3433;48.730;9.108;2022-12-13T01:24:30;-3.10;99.60
6792;DHT22;3433;48.730;9.108;2022-12-13T01:27:17;-3.10;99.60
6792;DHT22;3433;48.730;9.108;2022-12-13T01:30:06;-3.10;99.60
6792;DHT22;3433;48.730;9.108;2022-12-13T01:32:53;-3.20;99.50
6792;DHT22;3433;48.730;9.108;2022-12-13T01:35:40;-3.30;99.50
6792;DHT22;3433;48.730;9.108;2022-12-13T01:38:29;-3.30;99.50
6792;DHT22;3433;48.730;9.108;2022-12-13T01:41:18;-3.30;99.50
6792;DHT22;3433;48.730;9.108;2022-12-13T01:47:09;-3.40;99.50
6792;DHT22;3433;48.730;9.108;2022-12-13T01:49:59;-3.40;99.40
6792;DHT22;3433;48.730;9.108;2022-12-13T01:52:48;-3.50;99.40
6792;DHT22;3433;48.730;9.108;2022-12-13T01:55:38;-3.60;99.40
6792;DHT22;3433;48.730;9.108;2022-12-13T01:58:27;-3.60;99.40
6792;DHT22;3433;48.730;9.108;2022-12-13T02:01:15;-3.60;99.40
6792;DHT22;3433;48.730;9.108;2022-12-13T02:04:03;-3.60;99.40
6792;DHT22;3433;48.730;9.108;2022-12-13T02:06:50;-3.60;99.40
6792;DHT22;3433;48.730;9.108;2022-12-13T02:09:38;-3.60;99.50
6792;DHT22;3433;48.730;9.108;2022-12-13T02:12:30;-3.60;99.40
6792;DHT22;3433;48.730;9.108;2022-12-13T02:15:18;-3.70;99.40
6792;DHT22;3433;48.730;9.108;2022-12-13T02:18:17;-3.70;99.40
6792;DHT22;3433;48.730;9.108;2022-12-13T02:21:17;-3.70;99.40
6792;DHT22;3433;48.730;9.108;2022-12-13T02:27:42;-3.90;99.30
6792;DHT22;3433;48.730;9.108;2022-12-13T02:30:38;-3.90;99.30
6792;DHT22;3433;48.730;9.108;2022-12-13T02:33:42;-4.00;99.30
6792;DHT22;3433;48.730;9.108;2022-12-13T02:36:36;-4.00;99.30
6792;DHT22;3433;48.730;9.108;2022-12-13T02:39:31;-4.00;99.40
6792;DHT22;3433;48.730;9.108;2022-12-13T02:42:23;-4.00;99.30
6792;DHT22;3433;48.730;9.108;2022-12-13T02:45:15;-4.00;99.30
6792;DHT22;3433;48.730;9.108;2022-12-13T02:48:08;-4.10;99.30
6792;DHT22;3433;48.730;9.108;2022-12-13T02:50:58;-4.10;99.30
6792;DHT22;3433;48.730;9.108;2022-12-13T02:53:46;-4.10;99.20
6792;DHT22;3433;48.730;9.108;2022-12-13T02:56:33;-4.10;99.20
6792;DHT22;3433;48.730;9.108;2022-12-13T02:59:22;-4.20;99.10
6792;DHT22;3433;48.730;9.108;2022-12-13T03:02:16;-4.20;99.20
6792;DHT22;3433;48.730;9.108;2022-12-13T03:05:14;-4.20;99.20
6792;DHT22;3433;48.730;9.108;2022-12-13T03:08:23;-4.30;99.10
6792;DHT22;3433;48.730;9.108;2022-12-13T03:11:14;-4.30;99.10
6792;DHT22;3433;48.730;9.108;2022-12-13T03:14:05;-4.30;99.10
6792;DHT22;3433;48.730;9.108;2022-12-13T03:16:54;-4.30;99.10
6792;DHT22;3433;48.730;9.108;2022-12-13T03:19:41;-4.30;99.10
6792;DHT22;3433;48.730;9.108;2022-12-13T03:22:32;-4.40;99.10
6792;DHT22;3433;48.730;9.108;2022-12-13T03:25:20;-4.40;99.10
6792;DHT22;3433;48.730;9.108;2022-12-13T03:28:08;-4.40;99.10
6792;DHT22;3433;48.730;9.108;2022-12-13T03:30:55;-4.40;99.10
6792;DHT22;3433;48.730;9.108;2022-12-13T03:33:44;-4.40;99.10
6792;DHT22;3433;48.730;9.108;2022-12-13T03:36:31;-4.40;99.20
6792;DHT22;3433;48.730;9.108;2022-12-13T03:39:20;-4.50;99.10
6792;DHT22;3433;48.730;9.108;2022-12-13T03:42:08;-4.50;99.10
6792;DHT22;3433;48.730;9.108;2022-12-13T03:44:55;-4.50;99.10
6792;DHT22;3433;48.730;9.108;2022-12-13T03:47:43;-4.50;99.10
6792;DHT22;3433;48.730;9.108;2022-12-13T03:50:30;-4.50;99.10
6792;DHT22;3433;48.730;9.108;2022-12-13T03:53:17;-4.60;99.10
6792;DHT22;3433;48.730;9.108;2022-12-13T03:56:06;-4.60;99.10
6792;DHT22;3433;48.730;9.108;2022-12-13T03:58:54;-4.60;99.00
6792;DHT22;3433;48.730;9.108;2022-12-13T04:01:41;-4.60;99.10
6792;DHT22;3433;48.730;9.108;2022-12-13T04:04:28;-4.60;99.10
6792;DHT22;3433;48.730;9.108;2022-12-13T04:07:15;-4.60;99.00
6792;DHT22;3433;48.730;9.108;2022-12-13T04:10:03;-4.70;99.00
6792;DHT22;3433;48.730;9.108;2022-12-13T04:12:52;-4.70;99.00
6792;DHT22;3433;48.730;9.108;2022-12-13T04:15:57;-4.70;99.00
6792;DHT22;3433;48.730;9.108;2022-12-13T04:18:45;-4.70;99.00
6792;DHT22;3433;48.730;9.108;2022-12-13T04:21:32;-4.70;99.00
6792;DHT22;3433;48.730;9.108;2022-12-13T04:24:19;-4.70;99.00
6792;DHT22;3433;48.730;9.108;2022-12-13T04:27:06;-4.70;99.00
6792;DHT22;3433;48.730;9.108;2022-12-13T04:29:55;-4.70;99.00
6792;DHT22;3433;48.730;9.108;2022-12-13T04:32:42;-4.70;99.00
6792;DHT22;3433;48.730;9.108;2022-12-13T04:35:29;-4.70;99.00
6792;DHT22;3433;48.730;9.108;2022-12-13T04:38:17;-4.80;99.00
6792;DHT22;3433;48.730;9.108;2022-12-13T04:41:06;-4.80;99.00
6792;DHT22;3433;48.730;9.108;2022-12-13T04:43:54;-4.80;99.00
6792;DHT22;3433;48.730;9.108;2022-12-13T04:46:42;-4.80;99.00
6792;DHT22;3433;48.730;9.108;2022-12-13T04:49:30;-4.80;99.10
6792;DHT22;3433;48.730;9.108;2022-12-13T04:52:17;-4.80;99.40
6792;DHT22;3433;48.730;9.108;2022-12-13T04:55:06;-4.80;99.10
6792;DHT22;3433;48.730;9.108;2022-12-13T04:57:53;-4.80;99.10
6792;DHT22;3433;48.730;9.108;2022-12-13T05:00:41;-4.80;99.00
6792;DHT22;3433;48.730;9.108;2022-12-13T05:03:29;-4.80;99.00
6792;DHT22;3433;48.730;9.108;2022-12-13T05:06:17;-4.80;99.00
6792;DHT22;3433;48.730;9.108;2022-12-13T05:09:04;-4.80;99.00
6792;DHT22;3433;48.730;9.108;2022-12-13T05:11:52;-4.90;98.90
6792;DHT22;3433;48.730;9.108;2022-12-13T05:14:39;-4.90;99.00
6792;DHT22;3433;48.730;9.108;2022-12-13T05:17:26;-4.90;99.00
6792;DHT22;3433;48.730;9.108;2022-12-13T05:20:15;-4.90;99.00
6792;DHT22;3433;48.730;9.108;2022-12-13T05:23:02;-4.90;99.00
6792;DHT22;3433;48.730;9.108;2022-12-13T05:25:49;-4.90;99.00
6792;DHT22;3433;48.730;9.108;2022-12-13T05:28:37;-4.90;99.00
6792;DHT22;3433;48.730;9.108;2022-12-13T05:31:24;-5.00;99.00
6792;DHT22;3433;48.730;9.108;2022-12-13T05:34:11;-4.90;99.00
6792;DHT22;3433;48.730;9.108;2022-12-13T05:37:01;-5.00;98.90
6792;DHT22;3433;48.730;9.108;2022-12-13T05:39:48;-5.00;98.90
6792;DHT22;3433;48.730;9.108;2022-12-13T05:42:36;-5.00;98.90
6792;DHT22;3433;48.730;9.108;2022-12-13T05:45:24;-5.00;99.00
6792;DHT22;3433;48.730;9.108;2022-12-13T05:48:11;-5.00;98.90
6792;DHT22;3433;48.730;9.108;2022-12-13T05:50:58;-5.00;98.90
6792;DHT22;3433;48.730;9.108;2022-12-13T05:53:47;-5.10;98.90
6792;DHT22;3433;48.730;9.108;2022-12-13T05:56:34;-5.10;98.90
6792;DHT22;3433;48.730;9.108;2022-12-13T05:59:22;-5.00;99.00
6792;DHT22;3433;48.730;9.108;2022-12-13T06:02:09;-5.00;99.00
6792;DHT22;3433;48.730;9.108;2022-12-13T06:04:56;-5.00;99.00
6792;DHT22;3433;48.730;9.108;2022-12-13T06:07:43;-5.10;99.00
6792;DHT22;3433;48.730;9.108;2022-12-13T06:10:33;-5.00;99.00
6792;DHT22;3433;48.730;9.108;2022-12-13T06:13:20;-5.10;99.00
6792;DHT22;3433;48.730;9.108;2022-12-13T06:16:07;-5.00;99.00
6792;DHT22;3433;48.730;9.108;2022-12-13T06:18:55;-5.00;99.00
6792;DHT22;3433;48.730;9.108;2022-12-13T06:21:42;-5.00;99.00
6792;DHT22;3433;48.730;9.108;2022-12-13T06:24:30;-5.10;99.00
6792;DHT22;3433;48.730;9.108;2022-12-13T06:27:18;-5.00;99.10
6792;DHT22;3433;48.730;9.108;2022-12-13T06:30:07;-5.00;99.10
6792;DHT22;3433;48.730;9.108;2022-12-13T06:32:54;-5.00;99.20
6792;DHT22;3433;48.730;9.108;2022-12-13T06:35:42;-4.90;99.20
6792;DHT22;3433;48.730;9.108;2022-12-13T06:38:29;-4.90;99.30
6792;DHT22;3433;48.730;9.108;2022-12-13T06:41:17;-4.90;99.40
6792;DHT22;3433;48.730;9.108;2022-12-13T06:44:06;-4.70;99.90
6792;DHT22;3433;48.730;9.108;2022-12-13T06:46:53;-4.70;99.90
6792;DHT22;3433;48.730;9.108;2022-12-13T06:49:41;-4.70;99.90
6792;DHT22;3433;48.730;9.108;2022-12-13T06:52:30;-4.60;99.90
6792;DHT22;3433;48.730;9.108;2022-12-13T06:55:17;-4.40;99.90
6792;DHT22;3433;48.730;9.108;2022-12-13T06:58:05;-4.40;99.90
6792;DHT22;3433;48.730;9.108;2022-12-13T07:01:02;-4.30;99.90
6792;DHT22;3433;48.730;9.108;2022-12-13T07:03:49;-4.30;99.80
6792;DHT22;3433;48.730;9.108;2022-12-13T07:06:37;-4.30;99.70
6792;DHT22;3433;48.730;9.108;2022-12-13T07:09:24;-4.30;99.60
6792;DHT22;3433;48.730;9.108;2022-12-13T07:12:11;-4.30;99.60
6792;DHT22;3433;48.730;9.108;2022-12-13T07:14:58;-4.30;99.50
6792;DHT22;3433;48.730;9.108;2022-12-13T07:17:50;-4.30;99.50
6792;DHT22;3433;48.730;9.108;2022-12-13T07:20:38;-4.30;99.40
6792;DHT22;3433;48.730;9.108;2022-12-13T07:23:25;-4.40;99.40
6792;DHT22;3433;48.730;9.108;2022-12-13T07:26:12;-4.40;99.40
6792;DHT22;3433;48.730;9.108;2022-12-13T07:29:01;-4.40;99.70
6792;DHT22;3433;48.730;9.108;2022-12-13T07:31:49;-4.30;99.90
6792;DHT22;3433;48.730;9.108;2022-12-13T07:34:37;-4.30;99.90
6792;DHT22;3433;48.730;9.108;2022-12-13T07:37:24;-4.20;99.90
6792;DHT22;3433;48.730;9.108;2022-12-13T07:40:12;-4.10;99.90
6792;DHT22;3433;48.730;9.108;2022-12-13T07:42:59;-4.00;99.90
6792;DHT22;3433;48.730;9.108;2022-12-13T07:45:46;-3.90;99.90
6792;DHT22;3433;48.730;9.108;2022-12-13T07:48:34;-3.90;99.90
6792;DHT22;3433;48.730;9.108;2022-12-13T07:51:22;-3.90;99.90
6792;DHT22;3433;48.730;9.108;2022-12-13T07:54:10;-3.90;99.90
6792;DHT22;3433;48.730;9.108;2022-12-13T07:56:57;-3.90;99.90
6792;DHT22;3433;48.730;9.108;2022-12-13T07:59:44;-3.80;99.90
6792;DHT22;3433;48.730;9.108;2022-12-13T08:02:31;-3.90;99.90
6792;DHT22;3433;48.730;9.108;2022-12-13T08:05:19;-3.80;99.90
6792;DHT22;3433;48.730;9.108;2022-12-13T08:08:08;-3.70;99.90
6792;DHT22;3433;48.730;9.108;2022-12-13T08:10:59;-3.70;99.90
6792;DHT22;3433;48.730;9.108;2022-12-13T08:13:47;-3.60;99.90
6792;DHT22;3433;48.730;9.108;2022-12-13T08:16:34;-3.50;99.90
6792;DHT22;3433;48.730;9.108;2022-12-13T08:19:22;-3.40;99.90
6792;DHT22;3433;48.730;9.108;2022-12-13T08:22:11;-3.30;99.90
6792;DHT22;3433;48.730;9.108;2022-12-13T08:25:00;-3.20;99.90
6792;DHT22;3433;48.730;9.108;2022-12-13T08:27:47;-3.00;99.90
6792;DHT22;3433;48.730;9.108;2022-12-13T08:30:34;-2.80;99.90
6792;DHT22;3433;48.730;9.108;2022-12-13T08:33:22;-2.70;99.90
6792;DHT22;3433;48.730;9.108;2022-12-13T08:36:10;-2.70;99.90
6792;DHT22;3433;48.730;9.108;2022-12-13T08:38:57;-2.70;99.90
6792;DHT22;3433;48.730;9.108;2022-12-13T08:41:50;-2.40;99.90
6792;DHT22;3433;48.730;9.108;2022-12-13T08:44:37;-2.40;99.90
6792;DHT22;3433;48.730;9.108;2022-12-13T08:47:25;-2.40;99.90
6792;DHT22;3433;48.730;9.108;2022-12-13T08:50:13;-2.40;99.90
6792;DHT22;3433;48.730;9.108;2022-12-13T08:53:00;-2.30;99.90
6792;DHT22;3433;48.730;9.108;2022-12-13T08:55:48;-2.40;99.90
6792;DHT22;3433;48.730;9.108;2022-12-13T08:58:37;-2.40;99.90
6792;DHT22;3433;48.730;9.108;2022-12-13T09:01:24;-2.30;99.90
6792;DHT22;3433;48.730;9.108;2022-12-13T09:04:12;-2.40;99.90
6792;DHT22;3433;48.730;9.108;2022-12-13T09:06:59;-2.30;99.90
6792;DHT22;3433;48.730;9.108;2022-12-13T09:09:46;-2.20;99.90
6792;DHT22;3433;48.730;9.108;2022-12-13T09:12:33;-2.20;99.90
6792;DHT22;3433;48.730;9.108;2022-12-13T09:15:22;-2.00;99.90
6792;DHT22;3433;48.730;9.108;2022-12-13T09:18:09;-2.10;99.90
6792;DHT22;3433;48.730;9.108;2022-12-13T09:20:56;-2.30;99.70
6792;DHT22;3433;48.730;9.108;2022-12-13T09:23:44;-2.10;99.80
6792;DHT22;3433;48.730;9.108;2022-12-13T09:26:31;-2.10;99.90
6792;DHT22;3433;48.730;9.108;2022-12-13T09:29:19;-2.10;99.90
6792;DHT22;3433;48.730;9.108;2022-12-13T09:32:07;-2.00;99.90
6792;DHT22;3433;48.730;9.108;2022-12-13T09:34:54;-1.60;99.90
6792;DHT22;3433;48.730;9.108;2022-12-13T09:37:42;-1.50;99.80
6792;DHT22;3433;48.730;9.108;2022-12-13T09:40:30;-1.50;99.70
6792;DHT22;3433;48.730;9.108;2022-12-13T09:43:21;-1.30;99.90
6792;DHT22;3433;48.730;9.108;2022-12-13T09:46:19;-1.30;99.70
6792;DHT22;3433;48.730;9.108;2022-12-13T09:49:12;-1.10;99.40
6792;DHT22;3433;48.730;9.108;2022-12-13T09:52:02;-1.30;99.10
6792;DHT22;3433;48.730;9.108;2022-12-13T09:54:53;-1.30;98.90
6792;DHT22;3433;48.730;9.108;2022-12-13T09:57:42;-1.40;99.10
6792;DHT22;3433;48.730;9.108;2022-12-13T10:00:35;-1.00;98.90
6792;DHT22;3433;48.730;9.108;2022-12-13T10:03:23;-1.40;98.50
6792;DHT22;3433;48.730;9.108;2022-12-13T10:06:17;-1.20;99.10
6792;DHT22;3433;48.730;9.108;2022-12-13T10:09:08;-1.20;98.90
6792;DHT22;3433;48.730;9.108;2022-12-13T10:11:57;-0.90;99.30
6792;DHT22;3433;48.730;9.108;2022-12-13T10:14:48;-0.90;98.70
6792;DHT22;3433;48.730;9.108;2022-12-13T10:17:39;-0.90;98.70
6792;DHT22;3433;48.730;9.108;2022-12-13T10:20:28;-0.70;98.50
6792;DHT22;3433;48.730;9.108;2022-12-13T10:23:18;-0.80;97.90
6792;DHT22;3433;48.730;9.108;2022-12-13T10:26:09;-0.90;97.70
6792;DHT22;3433;48.730;9.108;2022-12-13T10:29:00;-0.80;98.10
6792;DHT22;3433;48.730;9.108;2022-12-13T10:31:50;-0.50;98.40
6792;DHT22;3433;48.730;9.108;2022-12-13T10:34:38;-0.80;97.90
6792;DHT22;3433;48.730;9.108;2022-12-13T10:37:28;-0.70;97.50
6792;DHT22;3433;48.730;9.108;2022-12-13T10:40:25;-0.60;97.70
6792;DHT22;3433;48.730;9.108;2022-12-13T10:43:15;-0.50;96.90
6792;DHT22;3433;48.730;9.108;2022-12-13T10:46:03;-0.50;97.10
6792;DHT22;3433;48.730;9.108;2022-12-13T10:48:51;-0.50;97.30
6792;DHT22;3433;48.730;9.108;2022-12-13T10:51:38;-0.50;97.00
6792;DHT22;3433;48.730;9.108;2022-12-13T10:54:28;-0.50;97.30
6792;DHT22;3433;48.730;9.108;2022-12-13T10:57:17;-0.80;96.70
6792;DHT22;3433;48.730;9.108;2022-12-13T11:00:30;-0.80;97.20
6792;DHT22;3433;48.730;9.108;2022-12-13T11:03:29;-0.40;97.50
6792;DHT22;3433;48.730;9.108;2022-12-13T11:06:17;-0.30;96.80
6792;DHT22;3433;48.730;9.108;2022-12-13T11:09:13;-0.10;97.30
6792;DHT22;3433;48.730;9.108;2022-12-13T11:12:02;-0.20;96.70
6792;DHT22;3433;48.730;9.108;2022-12-13T11:14:55;0.10;97.50
6792;DHT22;3433;48.730;9.108;2022-12-13T11:17:46;0.00;96.80
6792;DHT22;3433;48.730;9.108;2022-12-13T11:20:36;0.10;96.40
6792;DHT22;3433;48.730;9.108;2022-12-13T11:23:27;-0.10;96.00
6792;DHT22;3433;48.730;9.108;2022-12-13T11:26:17;0.10;96.10
6792;DHT22;3433;48.730;9.108;2022-12-13T11:29:31;0.00;96.10
6792;DHT22;3433;48.730;9.108;2022-12-13T11:32:28;0.10;96.40
6792;DHT22;3433;48.730;9.108;2022-12-13T11:35:24;0.10;95.80
6792;DHT22;3433;48.730;9.108;2022-12-13T11:38:24;0.20;95.60
6792;DHT22;3433;48.730;9.108;2022-12-13T11:41:16;0.30;95.70
6792;DHT22;3433;48.730;9.108;2022-12-13T11:44:11;0.40;95.90
6792;DHT22;3433;48.730;9.108;2022-12-13T11:47:00;0.60;96.70
6792;DHT22;3433;48.730;9.108;2022-12-13T11:49:49;0.70;95.90
6792;DHT22;3433;48.730;9.108;2022-12-13T11:52:39;0.30;95.10
6792;DHT22;3433;48.730;9.108;2022-12-13T11:55:35;0.60;96.00
6792;DHT22;3433;48.730;9.108;2022-12-13T11:58:28;0.60;95.00
6792;DHT22;3433;48.730;9.108;2022-12-13T12:01:21;0.80;96.00
6792;DHT22;3433;48.730;9.108;2022-12-13T12:04:17;0.90;95.80
6792;DHT22;3433;48.730;9.108;2022-12-13T12:07:11;1.10;95.10
6792;DHT22;3433;48.730;9.108;2022-12-13T12:10:04;0.90;94.60
6792;DHT22;3433;48.730;9.108;2022-12-13T12:13:06;1.10;95.40
6792;DHT22;3433;48.730;9.108;2022-12-13T12:16:03;1.30;94.70
6792;DHT22;3433;48.730;9.108;2022-12-13T12:18:52;1.60;94.80
6792;DHT22;3433;48.730;9.108;2022-12-13T12:21:49;1.40;93.70
6792;DHT22;3433;48.730;9.108;2022-12-13T12:24:52;1.70;94.00
6792;DHT22;3433;48.730;9.108;2022-12-13T12:27:48;1.80;93.10
6792;DHT22;3433;48.730;9.108;2022-12-13T12:30:44;2.00;93.80
6792;DHT22;3433;48.730;9.108;2022-12-13T12:33:38;2.40;95.00
6792;DHT22;3433;48.730;9.108;2022-12-13T12:36:46;2.30;92.30
6792;DHT22;3433;48.730;9.108;2022-12-13T12:39:52;2.40;94.00
6792;DHT22;3433;48.730;9.108;2022-12-13T12:42:49;2.80;94.10
6792;DHT22;3433;48.730;9.108;2022-12-13T12:45:47;2.50;91.90
6792;DHT22;3433;48.730;9.108;2022-12-13T12:49:00;2.50;93.90
6792;DHT22;3433;48.730;9.108;2022-12-13T12:51:58;2.60;93.10
6792;DHT22;3433;48.730;9.108;2022-12-13T12:54:55;2.30;91.60
6792;DHT22;3433;48.730;9.108;2022-12-13T12:57:56;2.60;92.10
6792;DHT22;3433;48.730;9.108;2022-12-13T13:00:54;2.70;94.00
6792;DHT22;3433;48.730;9.108;2022-12-13T13:03:44;2.90;93.00
6792;DHT22;3433;48.730;9.108;2022-12-13T13:06:35;2.80;93.10
6792;DHT22;3433;48.730;9.108;2022-12-13T13:09:24;2.50;91.60
6792;DHT22;3433;48.730;9.108;2022-12-13T13:12:14;2.50;92.30
6792;DHT22;3433;48.730;9.108;2022-12-13T13:18:48;2.20;91.90
6792;DHT22;3433;48.730;9.108;2022-12-13T13:21:45;2.00;92.20
6792;DHT22;3433;48.730;9.108;2022-12-13T13:24:33;2.00;92.70
6792;DHT22;3433;48.730;9.108;2022-12-13T13:27:27;1.70;92.20
6792;DHT22;3433;48.730;9.108;2022-12-13T13:30:17;1.60;91.70
6792;DHT22;3433;48.730;9.108;2022-12-13T13:33:40;1.70;92.00
6792;DHT22;3433;48.730;9.108;2022-12-13T13:36:49;1.60;92.00
6792;DHT22;3433;48.730;9.108;2022-12-13T13:40:24;1.50;91.00
6792;DHT22;3433;48.730;9.108;2022-12-13T13:43:15;1.50;91.10
6792;DHT22;3433;48.730;9.108;2022-12-13T13:46:08;1.20;90.70
6792;DHT22;3433;48.730;9.108;2022-12-13T13:49:00;1.30;91.50
6792;DHT22;3433;48.730;9.108;2022-12-13T13:52:02;1.20;91.60
6792;DHT22;3433;48.730;9.108;2022-12-13T13:55:30;1.00;91.70
6792;DHT22;3433;48.730;9.108;2022-12-13T13:58:49;1.00;91.30
6792;DHT22;3433;48.730;9.108;2022-12-13T14:01:58;0.80;91.30
6792;DHT22;3433;48.730;9.108;2022-12-13T14:08:19;0.70;90.90
6792;DHT22;3433;48.730;9.108;2022-12-13T14:15:08;0.70;91.60
6792;DHT22;3433;48.730;9.108;2022-12-13T14:18:58;0.50;90.80
6792;DHT22;3433;48.730;9.108;2022-12-13T14:22:05;0.60;91.50
6792;DHT22;3433;48.730;9.108;2022-12-13T14:25:03;0.70;92.20
6792;DHT22;3433;48.730;9.108;2022-12-13T14:27:58;0.60;91.40
6792;DHT22;3433;48.730;9.108;2022-12-13T14:30:48;0.60;92.70
6792;DHT22;3433;48.730;9.108;2022-12-13T14:33:35;0.70;93.10
6792;DHT22;3433;48.730;9.108;2022-12-13T14:36:27;0.60;92.70
6792;DHT22;3433;48.730;9.108;2022-12-13T14:39:17;0.70;93.10
6792;DHT22;3433;48.730;9.108;2022-12-13T14:42:21;0.80;94.00
6792;DHT22;3433;48.730;9.108;2022-12-13T14:45:13;0.80;94.50
6792;DHT22;3433;48.730;9.108;2022-12-13T14:48:12;1.00;94.60
6792;DHT22;3433;48.730;9.108;2022-12-13T14:51:00;0.90;94.60
6792;DHT22;3433;48.730;9.108;2022-12-13T14:53:51;0.80;94.00
6792;DHT22;3433;48.730;9.108;2022-12-13T14:56:53;0.80;94.60
6792;DHT22;3433;48.730;9.108;2022-12-13T14:59:44;0.80;94.90
6792;DHT22;3433;48.730;9.108;2022-12-13T15:02:32;0.90;95.30
6792;DHT22;3433;48.730;9.108;2022-12-13T15:05:26;0.80;95.10
6792;DHT22;3433;48.730;9.108;2022-12-13T15:08:15;0.90;95.40
6792;DHT22;3433;48.730;9.108;2022-12-13T15:11:04;0.90;95.60
6792;DHT22;3433;48.730;9.108;2022-12-13T15:13:55;0.90;95.40
6792;DHT22;3433;48.730;9.108;2022-12-13T15:16:46;0.70;94.90
6792;DHT22;3433;48.730;9.108;2022-12-13T15:19:41;0.70;95.20
6792;DHT22;3433;48.730;9.108;2022-12-13T15:22:30;0.60;94.70
6792;DHT22;3433;48.730;9.108;2022-12-13T15:25:17;0.40;94.90
6792;DHT22;3433;48.730;9.108;2022-12-13T15:28:06;0.50;95.40
6792;DHT22;3433;48.730;9.108;2022-12-13T15:30:54;0.50;95.60
6792;DHT22;3433;48.730;9.108;2022-12-13T15:33:42;0.50;95.20
6792;DHT22;3433;48.730;9.108;2022-12-13T15:36:30;0.50;95.50
6792;DHT22;3433;48.730;9.108;2022-12-13T15:39:18;0.50;95.60
6792;DHT22;3433;48.730;9.108;2022-12-13T15:42:14;0.50;95.50
6792;DHT22;3433;48.730;9.108;2022-12-13T15:45:04;0.50;95.60
6792;DHT22;3433;48.730;9.108;2022-12-13T15:47:53;0.50;95.70
6792;DHT22;3433;48.730;9.108;2022-12-13T15:50:40;0.50;95.60
6792;DHT22;3433;48.730;9.108;2022-12-13T15:53:28;0.50;95.80
6792;DHT22;3433;48.730;9.108;2022-12-13T15:56:30;0.50;95.80
6792;DHT22;3433;48.730;9.108;2022-12-13T15:59:24;0.40;94.90
6792;DHT22;3433;48.730;9.108;2022-12-13T16:02:16;0.40;95.50
6792;DHT22;3433;48.730;9.108;2022-12-13T16:05:07;0.40;95.50
6792;DHT22;3433;48.730;9.108;2022-12-13T16:07:55;0.40;95.60
6792;DHT22;3433;48.730;9.108;2022-12-13T16:10:45;0.40;95.90
6792;DHT22;3433;48.730;9.108;2022-12-13T16:13:36;0.30;95.50
6792;DHT22;3433;48.730;9.108;2022-12-13T16:16:26;0.30;95.60
6792;DHT22;3433;48.730;9.108;2022-12-13T16:19:18;0.30;95.80
6792;DHT22;3433;48.730;9.108;2022-12-13T16:22:06;0.30;95.90
6792;DHT22;3433;48.730;9.108;2022-12-13T16:24:53;0.30;96.00
6792;DHT22;3433;48.730;9.108;2022-12-13T16:27:41;0.20;95.80
6792;DHT22;3433;48.730;9.108;2022-12-13T16:30:59;0.30;95.90
6792;DHT22;3433;48.730;9.108;2022-12-13T16:33:47;0.30;96.10
6792;DHT22;3433;48.730;9.108;2022-12-13T16:36:34;0.30;95.40
6792;DHT22;3433;48.730;9.108;2022-12-13T16:39:21;0.30;96.10
6792;DHT22;3433;48.730;9.108;2022-12-13T16:42:08;0.10;94.90
6792;DHT22;3433;48.730;9.108;2022-12-13T16:44:55;-0.40;94.70
6792;DHT22;3433;48.730;9.108;2022-12-13T16:47:45;-0.30;95.30
6792;DHT22;3433;48.730;9.108;2022-12-13T16:50:33;-0.30;95.50
6792;DHT22;3433;48.730;9.108;2022-12-13T16:53:22;-0.20;95.30
6792;DHT22;3433;48.730;9.108;2022-12-13T16:56:09;-0.10;95.60
6792;DHT22;3433;48.730;9.108;2022-12-13T16:58:59;-0.30;95.30
6792;DHT22;3433;48.730;9.108;2022-12-13T17:01:47;-0.30;95.10
6792;DHT22;3433;48.730;9.108;2022-12-13T17:04:36;-0.40;95.40
6792;DHT22;3433;48.730;9.108;2022-12-13T17:07:26;-0.30;95.20
6792;DHT22;3433;48.730;9.108;2022-12-13T17:10:14;-0.50;94.50
6792;DHT22;3433;48.730;9.108;2022-12-13T17:13:01;-0.70;94.90
6792;DHT22;3433;48.730;9.108;2022-12-13T17:15:49;-1.00;94.20
6792;DHT22;3433;48.730;9.108;2022-12-13T17:18:36;-0.80;94.60
6792;DHT22;3433;48.730;9.108;2022-12-13T17:21:25;-0.80;94.00
6792;DHT22;3433;48.730;9.108;2022-12-13T17:24:13;-0.80;94.00
6792;DHT22;3433;48.730;9.108;2022-12-13T17:27:00;-0.80;94.20
6792;DHT22;3433;48.730;9.108;2022-12-13T17:29:48;-0.90;94.20
6792;DHT22;3433;48.730;9.108;2022-12-13T17:32:35;-0.90;94.20
6792;DHT22;3433;48.730;9.108;2022-12-13T17:35:22;-1.10;94.20
6792;DHT22;3433;48.730;9.108;2022-12-13T17:38:13;-0.90;94.40
6792;DHT22;3433;48.730;9.108;2022-12-13T17:41:00;-1.10;94.40
6792;DHT22;3433;48.730;9.108;2022-12-13T17:43:48;-1.00;94.80
6792;DHT22;3433;48.730;9.108;2022-12-13T17:46:36;-1.10;95.20
6792;DHT22;3433;48.730;9.108;2022-12-13T17:49:23;-1.10;94.70
6792;DHT22;3433;48.730;9.108;2022-12-13T17:52:11;-0.90;94.70
6792;DHT22;3433;48.730;9.108;2022-12-13T17:54:59;-0.90;94.80
6792;DHT22;3433;48.730;9.108;2022-12-13T17:57:49;-1.10;94.80
6792;DHT22;3433;48.730;9.108;2022-12-13T18:00:36;-1.10;94.90
6792;DHT22;3433;48.730;9.108;2022-12-13T18:03:24;-1.30;94.90
6792;DHT22;3433;48.730;9.108;2022-12-13T18:06:11;-1.30;95.30
6792;DHT22;3433;48.730;9.108;2022-12-13T18:08:58;-1.30;95.50
6792;DHT22;3433;48.730;9.108;2022-12-13T18:11:47;-1.20;95.70
6792;DHT22;3433;48.730;9.108;2022-12-13T18:14:34;-1.10;95.50
6792;DHT22;3433;48.730;9.108;2022-12-13T18:17:22;-1.00;95.50
6792;DHT22;3433;48.730;9.108;2022-12-13T18:20:10;-1.10;95.60
6792;DHT22;3433;48.730;9.108;2022-12-13T18:22:57;-1.30;95.80
6792;DHT22;3433;48.730;9.108;2022-12-13T18:25:44;-1.30;95.80
6792;DHT22;3433;48.730;9.108;2022-12-13T18:28:37;-1.30;95.80
6792;DHT22;3433;48.730;9.108;2022-12-13T18:31:24;-1.40;96.30
6792;DHT22;3433;48.730;9.108;2022-12-13T18:34:12;-1.30;96.20
6792;DHT22;3433;48.730;9.108;2022-12-13T18:37:00;-1.30;96.20
6792;DHT22;3433;48.730;9.108;2022-12-13T18:39:47;-1.10;96.30
6792;DHT22;3433;48.730;9.108;2022-12-13T18:42:34;-1.20;96.20
6792;DHT22;3433;48.730;9.108;2022-12-13T18:45:23;-1.10;96.10
6792;DHT22;3433;48.730;9.108;2022-12-13T18:48:10;-1.40;96.30
6792;DHT22;3433;48.730;9.108;2022-12-13T18:50:58;-1.60;96.70
6792;DHT22;3433;48.730;9.108;2022-12-13T18:53:45;-1.60;97.00
6792;DHT22;3433;48.730;9.108;2022-12-13T18:56:33;-1.60;97.00